Terminal Aerodrome Forecast
Issued by NWS Wilmington, OH

Home | Current Version | Previous Version | Graphics & Text | Print | Product List | Glossary Off
Versions: 1 2 3 4 5 6 7 8 9 10 11 12 13

000
FTUS41 KILN 092300
TAFCMH
TAF
KCMH 092320Z 1000/1024 30010KT P6SM SCT060
     FM100300 35003KT P6SM SKC
     FM101500 36008KT P6SM FEW060=

USA.gov is the U.S. government's official web portal to all federal, state and local government web resources and services.